Relevés horaires Koksijde (Belgique)


Relevés horaires à Koksijde - Mercredi 06 Mai 2026
Heure UTC1 Température [°C] Vent [km/h] Hum. [%] Pres.4 [hPa] Visi. [Km] Nébu. [octa] Préc.5 [mm] Cond.
2m. Res. Ros. Dir.2 Vit. Moy. Raf.3
23:00 11.1 10.4 7.8 N 7.4 -- 11.1 80 1013.6(0.6/3h) 16 -- -- --
22:00 10.8 10.1 7.6 N 7.4 -- 11.1 81 1013.3(0.9/3h) 16 -- -- --
21:00 10.8 10.1 7.5 N 7.4 -- 14.8 80 1013.2(1.3/3h) 16 -- -- --
20:00 10.6 9.8 6.9 N 7.4 -- 13.0 78 1013.1(1.4/3h) 17 -- -- --
19:00 10.8 10.1 6.5 N 7.4 -- 14.8 75 1012.5(1.0/3h) >70 -- -- --
18:00 11.3 10 6.9 N 11.1 -- 18.5 74 1012(0.6/3h) >70 -- -- --
17:00 12.0 10.9 7.3 N 11.1 -- 16.7 73 1011.6(0.3/3h) >70 -- -- --
16:00 12.2 11.1 7.0 N 11.1 -- 16.7 70 1011.3(0.2/3h) >70 -- -- --
15:00 12.7 11.7 7.4 N 11.1 -- 18.5 70 1011.2(0.2/3h) >70 -- -- --
14:00 13.3 12.4 8.1 N 11.1 -- 16.7 71 1011.2(0.2/3h) 25 6/8 -- --
13:00 12.8 11.8 7.1 N 11.1 -- 18.5 68 1011.2(0.4/3h) 25 7/8 -- --
12:00 12.3 11.2 6.9 N 11.1 -- 18.5 70 1011(0.5/3h) 25 7/8 -- --
11:00 11.9 10.7 6.5 N 11.1 -- 18.5 69 1011(0.8/3h) 25 7/8 -- --
10:00 12.4 11.1 6.5 N 13.0 -- 16.7 67 1010.7(0.8/3h) 25 7/8 -- --
09:00 11.6 10.4 6.1 N 11.1 -- 16.7 69 1010.5(0.6/3h) 25 7/8 -- --
08:00 11.7 10.5 5.5 N 11.1 -- 16.7 66 1010.1(0.3/3h) 25 7/8 -- --
07:00 11.5 10.3 6.1 N 11.1 -- 14.8 69 1009.8(0.0/3h) 25 7/8 -- --
06:00 11.0 9.7 5.7 N 11.1 -- 18.5 70 1009.8(-0.1/3h) 25 7/8 -- --
05:00 10.1 8.9 5.6 N 9.3 -- 16.7 74 1009.7(-0.3/3h) 25 7/8 -- --
04:00 10.1 8.6 5.8 N 11.1 -- 18.5 75 1009.8(-0.4/3h) >70 -- -- --
03:00 10.1 8.3 5.9 N 13.0 -- 18.5 75 1010(-0.5/3h) >70 -- -- --
02:00 10.3 8.8 6.2 N 11.1 -- 16.7 76 1010.1(-0.5/3h) >70 -- -- --
01:00 10.0 8.8 6.5 N 9.3 -- 16.7 79 1010.2(-0.4/3h) >70 -- -- --
00:00 10.1 8.9 6.5 NNE 9.3 -- 20.4 78 1010.6(-0.1/3h) >70 -- -- --

1 Coordinated Universal Time. Actuellement il est 16:00 locale et 14:00 UTC.

2 Le vent souffle depuis la direction indiquée vers la direction oposée.

3 Les rafales max. sont disponible 40 min après l'heure du relevé.

4 Pour les stations d'altitude (plus de 600m) le géopotentiel du niveau le plus proche de la pression obligatoire est indiqué.

5 Les stations disposant d'un diffuseur peuvent indiquer "trace". Cela signifie que des précipitations ont touchés le sol mais que la quantité est inférieure à 0.1 mm.

Récapitulatif de la journée
Température [°C] Vent [km/h] Ensoleillement4 [h] Precipitations totale5 [mm] Pression [Hpa]
Min1 Max.2 Moy.3 Max. Min Max.
9.7 13.9 0 20.4 0 h 0 min 0 1009.7 1013.6

1 Température minimale relevée entre 18:00 UTC la veille et 18:00 UTC le jour donné.

2 Température maximale relevée entre 06:00 UTC le jour donné et 06:00 UTC le lendemain.

3 Vent moyen de la journée basé sur les relevés horaires.

4 Ensoleillement en heures relevé entre 06:00 UTC la veille et 06:00 UTC le jour donné.

5 Précipitations totales tombées entre 06:00 UTC la jour donné et 06:00 UTC le lendemain.

Graphiques horaires